sensor_id;sensor_type;location;lat;lon;timestamp;pressure;altitude;pressure_sealevel;temperature;humidity
15193;BME280;7697;51.630;7.484;2023-03-21T00:01:11;100961.59;;;10.87;93.80
15193;BME280;7697;51.630;7.484;2023-03-21T00:06:13;100961.84;;;10.93;94.21
15193;BME280;7697;51.630;7.484;2023-03-21T00:11:15;100950.00;;;10.88;94.18
15193;BME280;7697;51.630;7.484;2023-03-21T00:16:18;100939.97;;;10.84;93.98
15193;BME280;7697;51.630;7.484;2023-03-21T00:21:21;100938.38;;;10.89;93.96
15193;BME280;7697;51.630;7.484;2023-03-21T00:26:27;100936.59;;;10.97;93.73
15193;BME280;7697;51.630;7.484;2023-03-21T00:31:31;100923.72;;;10.94;93.48
15193;BME280;7697;51.630;7.484;2023-03-21T00:36:32;100907.41;;;10.90;93.38
15193;BME280;7697;51.630;7.484;2023-03-21T00:41:34;100913.56;;;10.97;93.59
15193;BME280;7697;51.630;7.484;2023-03-21T00:46:37;100900.31;;;10.97;92.96
15193;BME280;7697;51.630;7.484;2023-03-21T00:51:39;100900.13;;;10.99;92.97
15193;BME280;7697;51.630;7.484;2023-03-21T00:56:43;100895.25;;;11.02;92.30
15193;BME280;7697;51.630;7.484;2023-03-21T01:01:46;100892.03;;;11.07;92.49
15193;BME280;7697;51.630;7.484;2023-03-21T01:06:48;100894.50;;;11.08;91.82
15193;BME280;7697;51.630;7.484;2023-03-21T01:11:50;100886.75;;;11.13;91.45
15193;BME280;7697;51.630;7.484;2023-03-21T01:16:54;100893.31;;;11.17;91.18
15193;BME280;7697;51.630;7.484;2023-03-21T01:21:56;100888.84;;;11.18;90.88
15193;BME280;7697;51.630;7.484;2023-03-21T01:26:57;100885.59;;;11.22;90.59
15193;BME280;7697;51.630;7.484;2023-03-21T01:32:01;100874.53;;;11.12;90.45
15193;BME280;7697;51.630;7.484;2023-03-21T01:37:02;100874.34;;;11.20;90.53
15193;BME280;7697;51.630;7.484;2023-03-21T01:42:05;100877.44;;;11.24;90.24
15193;BME280;7697;51.630;7.484;2023-03-21T01:47:08;100867.03;;;11.22;89.86
15193;BME280;7697;51.630;7.484;2023-03-21T01:52:13;100870.31;;;11.24;89.78
15193;BME280;7697;51.630;7.484;2023-03-21T01:57:19;100877.25;;;11.25;89.36
15193;BME280;7697;51.630;7.484;2023-03-21T02:02:26;100866.84;;;11.24;89.31
15193;BME280;7697;51.630;7.484;2023-03-21T02:07:32;100870.94;;;11.26;89.38
15193;BME280;7697;51.630;7.484;2023-03-21T02:12:35;100858.66;;;11.19;89.21
15193;BME280;7697;51.630;7.484;2023-03-21T02:17:43;100846.22;;;11.19;89.00
15193;BME280;7697;51.630;7.484;2023-03-21T02:22:57;100846.22;;;11.19;89.56
15193;BME280;7697;51.630;7.484;2023-03-21T02:28:08;100845.63;;;11.24;89.39
15193;BME280;7697;51.630;7.484;2023-03-21T02:33:40;100839.91;;;11.20;89.56
15193;BME280;7697;51.630;7.484;2023-03-21T02:38:52;100835.84;;;11.24;89.85
15193;BME280;7697;51.630;7.484;2023-03-21T02:43:57;100835.00;;;11.17;89.97
15193;BME280;7697;51.630;7.484;2023-03-21T02:49:06;100846.44;;;11.24;89.89
15193;BME280;7697;51.630;7.484;2023-03-21T02:54:12;100827.44;;;11.14;90.08
15193;BME280;7697;51.630;7.484;2023-03-21T02:59:16;100823.59;;;11.17;89.69
15193;BME280;7697;51.630;7.484;2023-03-21T03:04:20;100831.75;;;11.22;89.87
15193;BME280;7697;51.630;7.484;2023-03-21T03:09:30;100822.34;;;11.19;89.86
15193;BME280;7697;51.630;7.484;2023-03-21T03:14:48;100821.75;;;11.17;89.60
15193;BME280;7697;51.630;7.484;2023-03-21T03:19:59;100815.00;;;11.15;89.89
15193;BME280;7697;51.630;7.484;2023-03-21T03:25:10;100810.91;;;11.12;90.60
15193;BME280;7697;51.630;7.484;2023-03-21T03:30:13;100818.06;;;11.18;90.54
15193;BME280;7697;51.630;7.484;2023-03-21T03:35:17;100817.47;;;11.16;90.51
15193;BME280;7697;51.630;7.484;2023-03-21T03:40:25;100811.97;;;11.18;90.74
15193;BME280;7697;51.630;7.484;2023-03-21T03:45:31;100813.81;;;11.17;90.98
15193;BME280;7697;51.630;7.484;2023-03-21T03:50:37;100809.69;;;11.08;91.71
15193;BME280;7697;51.630;7.484;2023-03-21T03:55:42;100804.38;;;11.08;91.64
15193;BME280;7697;51.630;7.484;2023-03-21T04:00:44;100794.53;;;11.02;92.20
15193;BME280;7697;51.630;7.484;2023-03-21T04:05:45;100783.38;;;11.07;92.44
15193;BME280;7697;51.630;7.484;2023-03-21T04:10:49;100770.88;;;11.01;92.16
15193;BME280;7697;51.630;7.484;2023-03-21T04:15:50;100774.16;;;11.03;91.99
15193;BME280;7697;51.630;7.484;2023-03-21T04:20:52;100768.47;;;10.99;92.36
15193;BME280;7697;51.630;7.484;2023-03-21T04:25:55;100765.81;;;10.99;92.53
15193;BME280;7697;51.630;7.484;2023-03-21T04:30:57;100776.19;;;11.01;92.36
15193;BME280;7697;51.630;7.484;2023-03-21T04:35:59;100781.91;;;11.04;92.44
15193;BME280;7697;51.630;7.484;2023-03-21T04:41:02;100766.56;;;10.93;92.69
15193;BME280;7697;51.630;7.484;2023-03-21T04:46:05;100772.31;;;10.97;93.00
15193;BME280;7697;51.630;7.484;2023-03-21T04:51:06;100760.25;;;10.94;93.11
15193;BME280;7697;51.630;7.484;2023-03-21T04:56:10;100756.56;;;10.88;93.36
15193;BME280;7697;51.630;7.484;2023-03-21T05:01:12;100762.72;;;10.96;93.46
15193;BME280;7697;51.630;7.484;2023-03-21T05:06:14;100752.91;;;10.89;93.41
15193;BME280;7697;51.630;7.484;2023-03-21T05:11:17;100755.94;;;10.86;93.48
15193;BME280;7697;51.630;7.484;2023-03-21T05:16:19;100743.06;;;10.77;93.71
15193;BME280;7697;51.630;7.484;2023-03-21T05:21:24;100745.16;;;10.88;93.63
15193;BME280;7697;51.630;7.484;2023-03-21T05:26:30;100756.97;;;10.92;93.39
15193;BME280;7697;51.630;7.484;2023-03-21T05:31:31;100754.94;;;10.87;93.78
15193;BME280;7697;51.630;7.484;2023-03-21T05:36:33;100757.81;;;10.93;93.86
15193;BME280;7697;51.630;7.484;2023-03-21T05:41:37;100739.00;;;10.81;93.65
15193;BME280;7697;51.630;7.484;2023-03-21T05:46:39;100761.91;;;10.95;93.72
15193;BME280;7697;51.630;7.484;2023-03-21T05:51:40;100744.16;;;10.89;93.72
15193;BME280;7697;51.630;7.484;2023-03-21T05:56:45;100766.84;;;11.05;93.61
15193;BME280;7697;51.630;7.484;2023-03-21T06:01:47;100744.16;;;10.96;93.79
15193;BME280;7697;51.630;7.484;2023-03-21T06:06:49;100751.72;;;10.99;93.64
15193;BME280;7697;51.630;7.484;2023-03-21T06:11:55;100760.34;;;11.07;94.00
15193;BME280;7697;51.630;7.484;2023-03-21T06:16:57;100743.97;;;10.97;93.59
15193;BME280;7697;51.630;7.484;2023-03-21T06:21:59;100751.72;;;10.99;93.90
15193;BME280;7697;51.630;7.484;2023-03-21T06:27:02;100754.19;;;11.00;94.49
15193;BME280;7697;51.630;7.484;2023-03-21T06:32:05;100754.34;;;10.92;94.80
15193;BME280;7697;51.630;7.484;2023-03-21T06:37:07;100761.06;;;10.95;95.10
15193;BME280;7697;51.630;7.484;2023-03-21T06:42:10;100762.72;;;10.96;95.27
15193;BME280;7697;51.630;7.484;2023-03-21T06:47:12;100760.69;;;10.98;95.39
15193;BME280;7697;51.630;7.484;2023-03-21T06:52:14;100748.44;;;10.90;95.83
15193;BME280;7697;51.630;7.484;2023-03-21T06:57:18;100768.47;;;10.99;96.65
15193;BME280;7697;51.630;7.484;2023-03-21T07:02:21;100760.88;;;10.96;96.41
15193;BME280;7697;51.630;7.484;2023-03-21T07:07:24;100749.19;;;10.84;97.07
15193;BME280;7697;51.630;7.484;2023-03-21T07:12:29;100749.19;;;10.84;97.33
15193;BME280;7697;51.630;7.484;2023-03-21T07:17:33;100769.63;;;10.90;98.17
15193;BME280;7697;51.630;7.484;2023-03-21T07:22:35;100768.38;;;10.86;98.49
15193;BME280;7697;51.630;7.484;2023-03-21T07:27:39;100773.28;;;10.89;98.51
15193;BME280;7697;51.630;7.484;2023-03-21T07:32:41;100753.28;;;10.86;98.88
15193;BME280;7697;51.630;7.484;2023-03-21T07:37:44;100770.84;;;10.94;99.47
15193;BME280;7697;51.630;7.484;2023-03-21T07:42:49;100750.03;;;10.84;99.75
15193;BME280;7697;51.630;7.484;2023-03-21T07:47:51;100767.81;;;10.97;100.00
15193;BME280;7697;51.630;7.484;2023-03-21T07:52:53;100755.56;;;10.89;100.00
15193;BME280;7697;51.630;7.484;2023-03-21T07:57:57;100754.34;;;10.92;99.60
15193;BME280;7697;51.630;7.484;2023-03-21T08:02:59;100761.72;;;10.97;99.88
15193;BME280;7697;51.630;7.484;2023-03-21T08:08:01;100763.97;;;11.00;100.00
15193;BME280;7697;51.630;7.484;2023-03-21T08:13:04;100772.13;;;11.05;100.00
15193;BME280;7697;51.630;7.484;2023-03-21T08:18:06;100761.53;;;11.05;100.00
15193;BME280;7697;51.630;7.484;2023-03-21T08:23:08;100776.44;;;11.12;100.00
15193;BME280;7697;51.630;7.484;2023-03-21T08:28:11;100767.28;;;11.08;100.00
15193;BME280;7697;51.630;7.484;2023-03-21T08:33:13;100754.63;;;11.10;100.00
15193;BME280;7697;51.630;7.484;2023-03-21T08:38:15;100768.13;;;11.22;100.00
15193;BME280;7697;51.630;7.484;2023-03-21T08:43:18;100763.66;;;11.29;100.00
15193;BME280;7697;51.630;7.484;2023-03-21T08:48:20;100759.81;;;11.32;100.00
15193;BME280;7697;51.630;7.484;2023-03-21T08:53:22;100732.66;;;11.29;100.00
15193;BME280;7697;51.630;7.484;2023-03-21T08:58:45;100759.03;;;11.51;100.00
15193;BME280;7697;51.630;7.484;2023-03-21T09:03:49;100757.41;;;11.56;100.00
15193;BME280;7697;51.630;7.484;2023-03-21T09:08:50;100757.03;;;11.59;100.00
15193;BME280;7697;51.630;7.484;2023-03-21T09:13:54;100747.03;;;11.68;100.00
15193;BME280;7697;51.630;7.484;2023-03-21T09:18:56;100751.56;;;11.81;100.00
15193;BME280;7697;51.630;7.484;2023-03-21T09:23:58;100746.03;;;11.82;100.00
15193;BME280;7697;51.630;7.484;2023-03-21T09:29:01;100740.97;;;11.87;100.00
15193;BME280;7697;51.630;7.484;2023-03-21T09:34:04;100747.91;;;11.88;100.00
15193;BME280;7697;51.630;7.484;2023-03-21T09:39:06;100754.84;;;11.96;100.00
15193;BME280;7697;51.630;7.484;2023-03-21T09:44:18;100744.03;;;12.04;100.00
15193;BME280;7697;51.630;7.484;2023-03-21T09:49:26;100757.91;;;12.06;100.00
15193;BME280;7697;51.630;7.484;2023-03-21T09:54:33;100735.63;;;12.00;100.00
15193;BME280;7697;51.630;7.484;2023-03-21T09:59:38;100732.78;;;12.09;100.00
15193;BME280;7697;51.630;7.484;2023-03-21T10:04:43;100743.41;;;12.09;100.00
15193;BME280;7697;51.630;7.484;2023-03-21T10:09:46;100748.69;;;12.09;100.00
15193;BME280;7697;51.630;7.484;2023-03-21T10:14:52;100738.50;;;12.06;100.00
15193;BME280;7697;51.630;7.484;2023-03-21T10:20:03;100743.00;;;12.05;100.00
15193;BME280;7697;51.630;7.484;2023-03-21T10:25:13;100737.91;;;12.03;100.00
15193;BME280;7697;51.630;7.484;2023-03-21T10:30:25;100733.19;;;11.99;100.00
15193;BME280;7697;51.630;7.484;2023-03-21T10:35:28;100738.09;;;12.09;100.00
15193;BME280;7697;51.630;7.484;2023-03-21T10:40:35;100733.19;;;12.19;100.00
15193;BME280;7697;51.630;7.484;2023-03-21T10:45:38;100723.38;;;12.26;100.00
15193;BME280;7697;51.630;7.484;2023-03-21T10:50:40;100728.06;;;12.30;100.00
15193;BME280;7697;51.630;7.484;2023-03-21T10:55:45;100714.16;;;12.35;100.00
15193;BME280;7697;51.630;7.484;2023-03-21T11:00:54;100702.09;;;12.39;100.00
15193;BME280;7697;51.630;7.484;2023-03-21T11:06:01;100700.44;;;12.45;100.00
15193;BME280;7697;51.630;7.484;2023-03-21T11:11:05;100693.09;;;12.47;100.00
15193;BME280;7697;51.630;7.484;2023-03-21T11:16:10;100689.38;;;12.54;100.00
15193;BME280;7697;51.630;7.484;2023-03-21T11:21:13;100682.44;;;12.60;100.00
15193;BME280;7697;51.630;7.484;2023-03-21T11:26:18;100672.81;;;12.65;100.00
15193;BME280;7697;51.630;7.484;2023-03-21T11:31:36;100673.00;;;12.70;100.00
15193;BME280;7697;51.630;7.484;2023-03-21T11:36:39;100653.19;;;12.66;100.00
15193;BME280;7697;51.630;7.484;2023-03-21T11:41:41;100663.56;;;12.74;100.00
15193;BME280;7697;51.630;7.484;2023-03-21T11:46:44;100644.81;;;12.63;100.00
15193;BME280;7697;51.630;7.484;2023-03-21T11:51:48;100646.28;;;12.59;100.00
15193;BME280;7697;51.630;7.484;2023-03-21T11:56:54;100647.47;;;12.69;100.00
15193;BME280;7697;51.630;7.484;2023-03-21T12:02:11;100628.81;;;12.76;100.00
15193;BME280;7697;51.630;7.484;2023-03-21T12:07:45;100623.22;;;12.91;100.00
15193;BME280;7697;51.630;7.484;2023-03-21T12:12:55;100622.47;;;13.08;100.00
15193;BME280;7697;51.630;7.484;2023-03-21T12:18:05;100607.19;;;13.04;100.00
15193;BME280;7697;51.630;7.484;2023-03-21T12:28:57;100595.25;;;13.20;98.90
15193;BME280;7697;51.630;7.484;2023-03-21T12:34:14;100587.53;;;13.36;97.55
15193;BME280;7697;51.630;7.484;2023-03-21T12:39:27;100582.28;;;13.55;97.85
15193;BME280;7697;51.630;7.484;2023-03-21T12:44:33;100586.66;;;13.67;96.81
15193;BME280;7697;51.630;7.484;2023-03-21T12:49:41;100584.00;;;13.67;95.46
15193;BME280;7697;51.630;7.484;2023-03-21T12:54:48;100585.19;;;13.71;95.08
15193;BME280;7697;51.630;7.484;2023-03-21T12:59:54;100576.97;;;13.73;94.35
15193;BME280;7697;51.630;7.484;2023-03-21T13:05:05;100573.97;;;13.87;93.86
15193;BME280;7697;51.630;7.484;2023-03-21T13:10:13;100576.50;;;14.01;92.96
15193;BME280;7697;51.630;7.484;2023-03-21T13:15:31;100561.16;;;13.96;91.23
15193;BME280;7697;51.630;7.484;2023-03-21T13:20:42;100551.06;;;13.86;90.67
15193;BME280;7697;51.630;7.484;2023-03-21T13:25:47;100548.44;;;13.80;90.60
15193;BME280;7697;51.630;7.484;2023-03-21T13:30:49;100555.19;;;13.82;91.26
15193;BME280;7697;51.630;7.484;2023-03-21T13:35:58;100551.41;;;13.90;90.42
15193;BME280;7697;51.630;7.484;2023-03-21T13:41:07;100520.34;;;13.84;89.55
15193;BME280;7697;51.630;7.484;2023-03-21T13:46:11;100533.88;;;13.82;89.40
15193;BME280;7697;51.630;7.484;2023-03-21T13:51:18;100521.91;;;13.73;87.74
15193;BME280;7697;51.630;7.484;2023-03-21T13:56:48;100506.31;;;13.77;87.90
15193;BME280;7697;51.630;7.484;2023-03-21T14:02:02;100501.13;;;13.82;87.80
15193;BME280;7697;51.630;7.484;2023-03-21T14:07:11;100501.44;;;13.74;87.57
15193;BME280;7697;51.630;7.484;2023-03-21T14:12:15;100495.00;;;13.81;86.91
15193;BME280;7697;51.630;7.484;2023-03-21T14:17:21;100487.69;;;13.77;86.73
15193;BME280;7697;51.630;7.484;2023-03-21T14:22:26;100471.41;;;13.67;85.93
15193;BME280;7697;51.630;7.484;2023-03-21T14:27:30;100474.94;;;13.79;86.53
15193;BME280;7697;51.630;7.484;2023-03-21T14:32:34;100467.94;;;13.84;86.21
15193;BME280;7697;51.630;7.484;2023-03-21T14:37:39;100459.72;;;13.86;85.55
15193;BME280;7697;51.630;7.484;2023-03-21T14:42:45;100465.78;;;13.93;85.51
15193;BME280;7697;51.630;7.484;2023-03-21T14:47:55;100460.13;;;14.01;84.70
15193;BME280;7697;51.630;7.484;2023-03-21T14:52:59;100464.44;;;14.02;84.41
15193;BME280;7697;51.630;7.484;2023-03-21T14:58:01;100469.53;;;14.04;84.08
15193;BME280;7697;51.630;7.484;2023-03-21T15:03:03;100463.84;;;14.00;83.82
15193;BME280;7697;51.630;7.484;2023-03-21T15:08:12;100465.16;;;14.09;83.24
15193;BME280;7697;51.630;7.484;2023-03-21T15:13:18;100451.53;;;14.17;83.30
15193;BME280;7697;51.630;7.484;2023-03-21T15:18:25;100452.72;;;14.21;82.45
15193;BME280;7697;51.630;7.484;2023-03-21T15:23:30;100451.97;;;14.14;81.95
15193;BME280;7697;51.630;7.484;2023-03-21T15:28:34;100446.06;;;14.12;82.74
15193;BME280;7697;51.630;7.484;2023-03-21T15:33:36;100444.22;;;14.13;82.51
15193;BME280;7697;51.630;7.484;2023-03-21T15:38:41;100432.00;;;14.05;82.11
15193;BME280;7697;51.630;7.484;2023-03-21T15:43:45;100443.84;;;14.09;82.64
15193;BME280;7697;51.630;7.484;2023-03-21T15:48:47;100421.13;;;14.07;82.47
15193;BME280;7697;51.630;7.484;2023-03-21T15:53:51;100430.94;;;14.24;82.21
15193;BME280;7697;51.630;7.484;2023-03-21T15:58:55;100426.63;;;14.23;81.63
15193;BME280;7697;51.630;7.484;2023-03-21T16:04:01;100424.13;;;14.28;82.23
15193;BME280;7697;51.630;7.484;2023-03-21T16:09:11;100423.78;;;14.37;81.88
15193;BME280;7697;51.630;7.484;2023-03-21T16:14:22;100415.66;;;14.32;82.01
15193;BME280;7697;51.630;7.484;2023-03-21T16:19:26;100414.81;;;14.19;81.53
15193;BME280;7697;51.630;7.484;2023-03-21T16:24:30;100412.00;;;14.14;81.75
15193;BME280;7697;51.630;7.484;2023-03-21T16:29:32;100402.75;;;14.17;81.73
15193;BME280;7697;51.630;7.484;2023-03-21T16:34:34;100412.06;;;14.26;81.99
15193;BME280;7697;51.630;7.484;2023-03-21T16:39:38;100421.56;;;14.34;81.98
15193;BME280;7697;51.630;7.484;2023-03-21T16:44:39;100412.44;;;14.30;82.56
15193;BME280;7697;51.630;7.484;2023-03-21T16:49:42;100408.47;;;14.20;82.19
15193;BME280;7697;51.630;7.484;2023-03-21T16:54:46;100397.84;;;14.02;82.33
15193;BME280;7697;51.630;7.484;2023-03-21T16:59:47;100391.22;;;13.93;82.51
15193;BME280;7697;51.630;7.484;2023-03-21T17:04:50;100400.34;;;13.85;83.38
15193;BME280;7697;51.630;7.484;2023-03-21T17:09:53;100407.56;;;13.78;83.29
15193;BME280;7697;51.630;7.484;2023-03-21T17:14:54;100429.56;;;13.74;83.98
15193;BME280;7697;51.630;7.484;2023-03-21T17:19:56;100430.72;;;13.78;83.97
15193;BME280;7697;51.630;7.484;2023-03-21T17:24:59;100437.31;;;13.75;83.73
15193;BME280;7697;51.630;7.484;2023-03-21T17:30:03;100430.47;;;13.68;83.87
15193;BME280;7697;51.630;7.484;2023-03-21T17:35:05;100447.00;;;13.70;84.18
15193;BME280;7697;51.630;7.484;2023-03-21T17:40:11;100460.31;;;13.70;84.83
15193;BME280;7697;51.630;7.484;2023-03-21T17:45:13;100462.41;;;13.68;84.81
15193;BME280;7697;51.630;7.484;2023-03-21T17:50:18;100453.00;;;13.65;84.89
15193;BME280;7697;51.630;7.484;2023-03-21T17:55:22;100447.25;;;13.68;85.32
15193;BME280;7697;51.630;7.484;2023-03-21T18:00:25;100440.13;;;13.62;85.23
15193;BME280;7697;51.630;7.484;2023-03-21T18:05:28;100448.94;;;13.63;85.13
15193;BME280;7697;51.630;7.484;2023-03-21T18:10:32;100453.66;;;13.61;85.25
15193;BME280;7697;51.630;7.484;2023-03-21T18:15:34;100441.47;;;13.53;85.44
15193;BME280;7697;51.630;7.484;2023-03-21T18:20:36;100443.91;;;13.55;85.86
15193;BME280;7697;51.630;7.484;2023-03-21T18:25:39;100435.53;;;13.51;85.83
15193;BME280;7697;51.630;7.484;2023-03-21T18:30:41;100443.38;;;13.46;85.62
15193;BME280;7697;51.630;7.484;2023-03-21T18:35:43;100441.75;;;13.45;85.81
15193;BME280;7697;51.630;7.484;2023-03-21T18:40:46;100448.72;;;13.46;85.95
15193;BME280;7697;51.630;7.484;2023-03-21T18:45:48;100455.72;;;13.40;86.18
15193;BME280;7697;51.630;7.484;2023-03-21T18:50:50;100466.09;;;13.48;86.48
15193;BME280;7697;51.630;7.484;2023-03-21T18:55:54;100447.97;;;13.39;86.58
15193;BME280;7697;51.630;7.484;2023-03-21T19:00:56;100454.53;;;13.36;87.31
15193;BME280;7697;51.630;7.484;2023-03-21T19:05:58;100450.09;;;13.30;87.60
15193;BME280;7697;51.630;7.484;2023-03-21T19:11:02;100449.28;;;13.30;87.85
15193;BME280;7697;51.630;7.484;2023-03-21T19:16:04;100424.63;;;13.23;88.04
15193;BME280;7697;51.630;7.484;2023-03-21T19:21:06;100449.78;;;13.20;88.03
15193;BME280;7697;51.630;7.484;2023-03-21T19:26:10;100420.41;;;13.15;88.39
15193;BME280;7697;51.630;7.484;2023-03-21T19:31:12;100436.75;;;13.12;88.17
15193;BME280;7697;51.630;7.484;2023-03-21T19:36:13;100449.66;;;13.15;88.27
15193;BME280;7697;51.630;7.484;2023-03-21T19:41:18;100447.44;;;13.05;90.14
15193;BME280;7697;51.630;7.484;2023-03-21T19:46:20;100447.66;;;13.04;90.94
15193;BME280;7697;51.630;7.484;2023-03-21T19:51:23;100446.94;;;12.90;92.38
15193;BME280;7697;51.630;7.484;2023-03-21T19:56:26;100441.69;;;12.84;93.08
15193;BME280;7697;51.630;7.484;2023-03-21T20:01:28;100432.97;;;12.76;93.39
15193;BME280;7697;51.630;7.484;2023-03-21T20:11:34;100407.69;;;12.67;93.26
15193;BME280;7697;51.630;7.484;2023-03-21T20:16:36;100416.91;;;12.65;93.61
15193;BME280;7697;51.630;7.484;2023-03-21T20:21:38;100413.81;;;12.68;93.78
15193;BME280;7697;51.630;7.484;2023-03-21T20:26:42;100396.06;;;12.62;93.06
15193;BME280;7697;51.630;7.484;2023-03-21T20:31:45;100391.00;;;12.60;93.50
15193;BME280;7697;51.630;7.484;2023-03-21T20:36:46;100393.66;;;12.60;93.38
15193;BME280;7697;51.630;7.484;2023-03-21T20:41:51;100385.69;;;12.60;92.73
15193;BME280;7697;51.630;7.484;2023-03-21T20:46:54;100406.06;;;12.66;93.27
15193;BME280;7697;51.630;7.484;2023-03-21T20:51:56;100397.78;;;12.56;93.01
15193;BME280;7697;51.630;7.484;2023-03-21T20:56:59;100405.53;;;12.58;92.15
15193;BME280;7697;51.630;7.484;2023-03-21T21:02:01;100399.81;;;12.54;92.64
15193;BME280;7697;51.630;7.484;2023-03-21T21:07:04;100403.28;;;12.55;92.36
15193;BME280;7697;51.630;7.484;2023-03-21T21:12:08;100384.97;;;12.47;91.55
15193;BME280;7697;51.630;7.484;2023-03-21T21:17:10;100386.22;;;12.44;91.63
15193;BME280;7697;51.630;7.484;2023-03-21T21:22:13;100384.41;;;12.38;91.36
15193;BME280;7697;51.630;7.484;2023-03-21T21:27:16;100384.25;;;12.33;91.40
15193;BME280;7697;51.630;7.484;2023-03-21T21:32:19;100391.41;;;12.32;91.16
15193;BME280;7697;51.630;7.484;2023-03-21T21:37:20;100386.31;;;12.31;91.26
15193;BME280;7697;51.630;7.484;2023-03-21T21:42:25;100385.09;;;12.27;91.13
15193;BME280;7697;51.630;7.484;2023-03-21T21:47:27;100377.19;;;12.20;90.88
15193;BME280;7697;51.630;7.484;2023-03-21T21:52:29;100376.97;;;12.22;91.16
15193;BME280;7697;51.630;7.484;2023-03-21T21:57:32;100377.19;;;12.20;90.95
15193;BME280;7697;51.630;7.484;2023-03-21T22:02:34;100359.09;;;12.11;90.45
15193;BME280;7697;51.630;7.484;2023-03-21T22:07:36;100362.34;;;12.13;90.35
15193;BME280;7697;51.630;7.484;2023-03-21T22:12:39;100357.44;;;12.10;90.73
15193;BME280;7697;51.630;7.484;2023-03-21T22:17:41;100365.22;;;12.11;90.29
15193;BME280;7697;51.630;7.484;2023-03-21T22:22:43;100365.59;;;12.15;90.18
15193;BME280;7697;51.630;7.484;2023-03-21T22:27:46;100377.84;;;12.16;90.05
15193;BME280;7697;51.630;7.484;2023-03-21T22:32:48;100368.69;;;12.12;90.57
15193;BME280;7697;51.630;7.484;2023-03-21T22:37:50;100362.97;;;12.08;90.28
15193;BME280;7697;51.630;7.484;2023-03-21T22:42:53;100356.47;;;12.04;89.92
15193;BME280;7697;51.630;7.484;2023-03-21T22:47:55;100349.31;;;12.05;89.99
15193;BME280;7697;51.630;7.484;2023-03-21T22:52:59;100362.97;;;12.08;89.96
15193;BME280;7697;51.630;7.484;2023-03-21T22:58:02;100356.25;;;12.06;89.75
15193;BME280;7697;51.630;7.484;2023-03-21T23:03:03;100358.88;;;12.12;89.53
15193;BME280;7697;51.630;7.484;2023-03-21T23:08:06;100349.88;;;12.13;88.93
15193;BME280;7697;51.630;7.484;2023-03-21T23:13:09;100346.41;;;12.13;89.45
15193;BME280;7697;51.630;7.484;2023-03-21T23:18:11;100345.81;;;12.11;89.28
15193;BME280;7697;51.630;7.484;2023-03-21T23:23:13;100342.53;;;12.09;89.62
15193;BME280;7697;51.630;7.484;2023-03-21T23:28:17;100340.13;;;12.07;89.58
15193;BME280;7697;51.630;7.484;2023-03-21T23:33:19;100340.94;;;12.08;89.24
15193;BME280;7697;51.630;7.484;2023-03-21T23:38:21;100345.00;;;12.10;89.62
15193;BME280;7697;51.630;7.484;2023-03-21T23:43:25;100356.81;;;12.14;89.59
15193;BME280;7697;51.630;7.484;2023-03-21T23:48:26;100351.31;;;12.16;89.69
15193;BME280;7697;51.630;7.484;2023-03-21T23:53:28;100340.50;;;12.11;90.02
15193;BME280;7697;51.630;7.484;2023-03-21T23:58:32;100322.38;;;12.08;90.14
